createdAt,value
2023-04-02T00:01:39.828Z,94199.22
2023-04-02T00:05:56.055Z,94190.25
2023-04-02T00:09:38.834Z,94192.28
2023-04-02T00:13:07.287Z,94198.75
2023-04-02T00:16:27.413Z,94206.13
2023-04-02T00:19:43.026Z,94196.50
2023-04-02T00:22:52.008Z,94199.22
2023-04-02T00:26:00.518Z,94204.88
2023-04-02T00:29:12.410Z,94209.69
2023-04-02T00:32:28.752Z,94208.13
2023-04-02T00:35:40.869Z,94218.09
2023-04-02T00:38:51.963Z,94218.75
2023-04-02T00:42:06.066Z,94215.66
2023-04-02T00:45:24.911Z,94212.63
2023-04-02T00:48:47.874Z,94218.00
2023-04-02T00:52:02.739Z,94214.16
2023-04-02T00:55:18.745Z,94217.63
2023-04-02T00:58:33.135Z,94214.75
2023-04-02T01:01:42.756Z,94213.03
2023-04-02T01:04:57.133Z,94205.53
2023-04-02T01:08:16.981Z,94214.88
2023-04-02T01:12:14.691Z,94208.47
2023-04-02T01:15:31.578Z,94208.22
2023-04-02T01:18:54.288Z,94217.09
2023-04-02T01:22:10.779Z,94220.53
2023-04-02T01:25:29.056Z,94217.78
2023-04-02T01:29:02.845Z,94215.03
2023-04-02T01:32:15.085Z,94217.84
2023-04-02T01:35:26.739Z,94215.38
2023-04-02T01:38:45.116Z,94224.94
2023-04-02T01:42:09.823Z,94223.13
2023-04-02T01:45:24.334Z,94229.47
2023-04-02T01:48:33.202Z,94235.94
2023-04-02T01:51:45.538Z,94231.84
2023-04-02T01:54:57.212Z,94241.56
2023-04-02T01:58:06.604Z,94237.97
2023-04-02T02:01:20.682Z,94248.75
2023-04-02T02:04:34.005Z,94252.00
2023-04-02T02:07:42.944Z,94244.47
2023-04-02T02:10:51.974Z,94251.53
2023-04-02T02:14:08.172Z,94253.66
2023-04-02T02:17:24.291Z,94253.19
2023-04-02T02:20:36.264Z,94252.56
2023-04-02T02:23:44.791Z,94260.81
2023-04-02T02:27:29.259Z,94259.44
2023-04-02T02:30:52.247Z,94266.59
2023-04-02T02:34:10.232Z,94265.44
2023-04-02T02:37:26.287Z,94259.28
2023-04-02T02:40:46.227Z,94264.72
2023-04-02T02:44:03.816Z,94263.63
2023-04-02T02:47:22.076Z,94267.34
2023-04-02T02:50:35.384Z,94260.22
2023-04-02T02:53:52.045Z,94266.94
2023-04-02T02:57:24.509Z,94277.88
2023-04-02T03:00:33.725Z,94281.84
2023-04-02T03:03:42.530Z,94279.41
2023-04-02T03:06:55.230Z,94286.94
2023-04-02T03:10:15.255Z,94291.84
2023-04-02T03:13:29.209Z,94291.41
2023-04-02T03:16:46.657Z,94291.44
2023-04-02T03:20:02.571Z,94291.44
2023-04-02T03:23:21.676Z,94290.56
2023-04-02T03:26:40.160Z,94294.47
2023-04-02T03:30:05.251Z,94300.00
2023-04-02T03:33:22.680Z,94305.75
2023-04-02T03:36:38.361Z,94307.06
2023-04-02T03:39:54.606Z,94306.06
2023-04-02T03:43:13.008Z,94313.41
2023-04-02T03:46:35.874Z,94313.44
2023-04-02T03:49:54.971Z,94313.69
2023-04-02T03:53:05.437Z,94316.63
2023-04-02T03:56:29.154Z,94314.22
2023-04-02T03:59:49.789Z,94314.97
2023-04-02T04:03:08.274Z,94317.34
2023-04-02T04:06:23.742Z,94319.03
2023-04-02T04:09:38.144Z,94328.44
2023-04-02T04:12:51.676Z,94328.22
2023-04-02T04:16:08.948Z,94326.50
2023-04-02T04:19:25.360Z,94330.78
2023-04-02T04:22:34.147Z,94344.00
2023-04-02T04:26:01.911Z,94340.28
2023-04-02T04:29:28.359Z,94349.44
2023-04-02T04:32:43.070Z,94353.13
2023-04-02T04:36:02.047Z,94351.31
2023-04-02T04:39:24.216Z,94353.56
2023-04-02T04:42:37.237Z,94353.09
2023-04-02T04:45:59.334Z,94367.00
2023-04-02T04:49:15.676Z,94377.94
2023-04-02T04:52:29.051Z,94377.84
2023-04-02T04:55:41.421Z,94380.41
2023-04-02T04:58:57.821Z,94377.63
2023-04-02T05:02:15.043Z,94388.16
2023-04-02T05:05:31.241Z,94390.84
2023-04-02T05:08:48.444Z,94399.69
2023-04-02T05:12:11.772Z,94400.75
2023-04-02T05:15:30.320Z,94405.22
2023-04-02T05:18:48.036Z,94407.72
2023-04-02T05:22:06.273Z,94419.94
2023-04-02T05:25:25.869Z,94418.13
2023-04-02T05:28:44.083Z,94417.53
2023-04-02T05:32:04.241Z,94425.59
2023-04-02T05:35:22.009Z,94425.88
2023-04-02T05:38:34.225Z,94431.22
2023-04-02T05:41:47.595Z,94427.50
2023-04-02T05:45:24.002Z,94430.09
2023-04-02T05:48:38.901Z,94442.81
2023-04-02T05:51:58.040Z,94441.94
2023-04-02T05:55:39.220Z,94441.53
2023-04-02T05:58:59.890Z,94445.31
2023-04-02T06:04:02.131Z,94450.00
2023-04-02T06:07:19.557Z,94452.28
2023-04-02T06:10:38.509Z,94458.34
2023-04-02T06:13:47.935Z,94460.84
2023-04-02T06:16:56.467Z,94461.16
2023-04-02T06:20:09.836Z,94465.72
2023-04-02T06:23:24.489Z,94465.34
2023-04-02T06:26:42.404Z,94471.44
2023-04-02T06:30:04.242Z,94475.09
2023-04-02T06:33:15.565Z,94475.94
2023-04-02T06:36:29.552Z,94466.56
2023-04-02T06:39:43.395Z,94480.44
2023-04-02T06:42:59.868Z,94488.03
2023-04-02T06:46:24.880Z,94488.06
2023-04-02T06:49:48.219Z,94491.97
2023-04-02T06:53:05.155Z,94492.47
2023-04-02T06:56:27.068Z,94499.88
2023-04-02T06:59:36.454Z,94498.44
2023-04-02T07:02:47.686Z,94506.41
2023-04-02T07:05:57.795Z,94509.75
2023-04-02T07:09:09.115Z,94520.34
2023-04-02T07:12:25.708Z,94521.66
2023-04-02T07:15:35.060Z,94522.03
2023-04-02T07:18:44.555Z,94525.00
2023-04-02T07:21:55.426Z,94528.47
2023-04-02T07:25:08.290Z,94538.38
2023-04-02T07:28:17.409Z,94539.09
2023-04-02T07:31:29.197Z,94526.28
2023-04-02T07:34:37.514Z,94531.56
2023-04-02T07:37:45.884Z,94544.03
2023-04-02T07:40:56.035Z,94536.28
2023-04-02T07:44:05.953Z,94549.19
2023-04-02T07:47:14.201Z,94554.09
2023-04-02T07:50:22.833Z,94560.41
2023-04-02T07:53:34.366Z,94558.38
2023-04-02T07:56:44.662Z,94563.88
2023-04-02T07:59:56.415Z,94569.19
2023-04-02T08:03:05.842Z,94567.94
2023-04-02T08:06:14.729Z,94571.84
2023-04-02T08:09:23.148Z,94577.59
2023-04-02T08:12:33.035Z,94578.81
2023-04-02T08:15:41.609Z,94576.78
2023-04-02T08:18:50.318Z,94585.34
2023-04-02T08:21:58.509Z,94580.03
2023-04-02T08:25:08.303Z,94581.28
2023-04-02T08:28:18.563Z,94588.25
2023-04-02T08:31:27.576Z,94590.66
2023-04-02T08:34:36.144Z,94601.31
2023-04-02T08:37:44.862Z,94604.16
2023-04-02T08:40:57.585Z,94598.03
2023-04-02T08:44:38.506Z,94606.00
2023-04-02T08:47:47.362Z,94601.91
2023-04-02T08:50:58.956Z,94597.19
2023-04-02T08:57:46.344Z,94607.88
2023-04-02T09:00:58.839Z,94610.69
2023-04-02T09:04:16.395Z,94605.56
2023-04-02T09:07:24.860Z,94619.97
2023-04-02T09:10:43.512Z,94616.28
2023-04-02T09:13:58.001Z,94628.13
2023-04-02T09:17:18.771Z,94624.56
2023-04-02T09:20:29.430Z,94635.84
2023-04-02T09:23:37.986Z,94641.72
2023-04-02T09:26:47.986Z,94638.97
2023-04-02T09:30:03.852Z,94645.47
2023-04-02T09:33:13.713Z,94646.41
2023-04-02T09:36:38.438Z,94641.34
2023-04-02T09:39:47.193Z,94643.47
2023-04-02T09:43:13.228Z,94657.09
2023-04-02T09:46:26.565Z,94661.03
2023-04-02T09:49:39.912Z,94658.00
2023-04-02T09:52:48.149Z,94664.69
2023-04-02T09:56:15.331Z,94658.19
2023-04-02T09:59:23.606Z,94657.84
2023-04-02T10:02:33.683Z,94661.56
2023-04-02T10:05:43.967Z,94671.03
2023-04-02T10:08:53.000Z,94668.59
2023-04-02T10:12:06.503Z,94667.47
2023-04-02T10:15:23.381Z,94668.13
2023-04-02T10:18:45.303Z,94671.09
2023-04-02T10:21:56.527Z,94669.44
2023-04-02T10:25:15.800Z,94667.75
2023-04-02T10:28:47.373Z,94665.66
2023-04-02T10:32:06.635Z,94664.72
2023-04-02T10:35:33.733Z,94671.44
2023-04-02T10:38:50.693Z,94670.25
2023-04-02T10:42:12.589Z,94676.16
2023-04-02T10:45:38.983Z,94677.78
2023-04-02T10:49:01.571Z,94681.91
2023-04-02T10:52:20.254Z,94673.03
2023-04-02T10:55:40.935Z,94672.22
2023-04-02T10:59:02.919Z,94680.66
2023-04-02T11:02:34.789Z,94686.75
2023-04-02T11:05:48.921Z,94686.28
2023-04-02T11:09:03.417Z,94692.22
2023-04-02T11:12:24.535Z,94686.50
2023-04-02T11:15:33.798Z,94687.44
2023-04-02T11:18:43.184Z,94687.31
2023-04-02T11:22:00.068Z,94679.50
2023-04-02T11:25:24.667Z,94679.31
2023-04-02T11:28:34.967Z,94679.41
2023-04-02T11:31:45.434Z,94685.25
2023-04-02T11:35:38.103Z,94677.56
2023-04-02T11:38:54.905Z,94686.16
2023-04-02T11:42:24.912Z,94683.63
2023-04-02T11:45:59.409Z,94689.56
2023-04-02T11:50:01.663Z,94696.28
2023-04-02T11:53:25.539Z,94688.13
2023-04-02T11:56:45.661Z,94708.44
2023-04-02T12:00:18.360Z,94709.50
2023-04-02T12:04:12.052Z,94705.97
2023-04-02T12:08:05.240Z,94712.97
2023-04-02T12:11:15.847Z,94717.25
2023-04-02T12:14:43.322Z,94714.78
2023-04-02T12:17:52.270Z,94720.34
2023-04-02T12:21:02.384Z,94725.06
2023-04-02T12:24:22.406Z,94731.66
2023-04-02T12:27:32.570Z,94723.41
2023-04-02T12:30:42.540Z,94726.56
2023-04-02T12:33:54.380Z,94725.72
2023-04-02T12:37:07.043Z,94724.69
2023-04-02T12:40:19.738Z,94727.28
2023-04-02T12:43:31.436Z,94732.72
2023-04-02T12:46:41.652Z,94730.75
2023-04-02T12:49:52.243Z,94733.72
2023-04-02T12:53:02.135Z,94736.28
2023-04-02T12:56:22.448Z,94736.78
2023-04-02T12:59:38.493Z,94750.31
2023-04-02T13:02:50.375Z,94739.50
2023-04-02T13:05:59.041Z,94744.56
2023-04-02T13:09:30.149Z,94749.44
2023-04-02T13:12:41.784Z,94747.63
2023-04-02T13:16:05.044Z,94749.09
2023-04-02T13:19:27.265Z,94758.50
2023-04-02T13:22:35.748Z,94761.38
2023-04-02T13:25:45.736Z,94767.09
2023-04-02T13:29:03.566Z,94769.97
2023-04-02T13:32:13.856Z,94783.31
2023-04-02T13:35:22.486Z,94780.16
2023-04-02T13:38:31.169Z,94788.13
2023-04-02T13:41:44.614Z,94786.41
2023-04-02T13:44:53.034Z,94788.75
2023-04-02T13:48:02.022Z,94792.06
2023-04-02T13:51:17.150Z,94787.53
2023-04-02T13:54:33.805Z,94790.88
2023-04-02T13:57:43.400Z,94792.66
2023-04-02T14:00:52.230Z,94794.38
2023-04-02T14:04:01.640Z,94797.50
2023-04-02T14:07:34.993Z,94802.63
2023-04-02T14:11:03.157Z,94805.22
2023-04-02T14:14:59.470Z,94804.94
2023-04-02T14:18:36.639Z,94807.19
2023-04-02T14:22:01.234Z,94806.09
2023-04-02T14:25:27.396Z,94794.84
2023-04-02T14:28:50.673Z,94798.38
2023-04-02T14:32:10.763Z,94806.41
2023-04-02T14:35:29.879Z,94810.44
2023-04-02T14:38:51.820Z,94814.59
2023-04-02T14:42:07.910Z,94817.84
2023-04-02T14:45:32.504Z,94820.38
2023-04-02T14:48:54.377Z,94819.28
2023-04-02T14:52:07.260Z,94823.50
2023-04-02T14:55:27.610Z,94833.31
2023-04-02T14:58:41.707Z,94847.03
2023-04-02T15:01:57.791Z,94853.03
2023-04-02T15:05:19.439Z,94851.16
2023-04-02T15:08:31.949Z,94853.88
2023-04-02T15:11:47.212Z,94849.00
2023-04-02T15:15:06.526Z,94842.44
2023-04-02T15:18:16.837Z,94844.16
2023-04-02T15:22:05.903Z,94851.19
2023-04-02T15:25:30.574Z,94852.59
2023-04-02T15:28:47.873Z,94854.00
2023-04-02T15:32:09.620Z,94861.13
2023-04-02T15:35:34.732Z,94869.31
2023-04-02T15:38:48.702Z,94859.53
2023-04-02T15:42:16.097Z,94863.69
2023-04-02T15:45:34.748Z,94869.81
2023-04-02T15:49:20.329Z,94873.97
2023-04-02T15:52:39.427Z,94880.03
2023-04-02T15:56:00.796Z,94879.44
2023-04-02T15:59:35.987Z,94893.28
2023-04-02T16:03:23.066Z,94893.16
2023-04-02T16:06:44.587Z,94895.94
2023-04-02T16:10:08.559Z,94899.94
2023-04-02T16:13:27.086Z,94902.25
2023-04-02T16:16:37.126Z,94909.59
2023-04-02T16:19:51.144Z,94912.13
2023-04-02T16:23:07.569Z,94917.25
2023-04-02T16:26:36.094Z,94924.44
2023-04-02T16:30:05.513Z,94926.63
2023-04-02T16:33:51.993Z,94932.97
2023-04-02T16:37:11.662Z,94941.91
2023-04-02T16:40:36.668Z,94943.09
2023-04-02T16:44:01.021Z,94946.50
2023-04-02T16:47:30.752Z,94958.34
2023-04-02T16:50:56.227Z,94960.53
2023-04-02T16:54:13.128Z,94970.75
2023-04-02T16:57:37.011Z,94975.78
2023-04-02T17:00:52.593Z,94972.91
2023-04-02T17:04:25.668Z,94984.50
2023-04-02T17:07:40.675Z,94985.63
2023-04-02T17:10:57.417Z,95000.56
2023-04-02T17:14:13.568Z,95001.63
2023-04-02T17:17:24.346Z,94998.69
2023-04-02T17:20:34.495Z,95013.00
2023-04-02T17:27:13.363Z,95020.00
2023-04-02T17:30:37.236Z,95025.00
2023-04-02T17:33:45.777Z,95032.59
2023-04-02T17:37:21.363Z,95036.94
2023-04-02T17:40:37.772Z,95040.31
2023-04-02T17:43:59.354Z,95055.88
2023-04-02T17:47:21.283Z,95063.50
2023-04-02T17:51:04.086Z,95079.03
2023-04-02T17:54:38.326Z,95082.50
2023-04-02T17:58:05.212Z,95078.56
2023-04-02T18:01:26.300Z,95084.69
2023-04-02T18:04:48.146Z,95098.72
2023-04-02T18:08:14.513Z,95097.56
2023-04-02T18:11:41.327Z,95104.66
2023-04-02T18:15:06.893Z,95113.06
2023-04-02T18:18:36.199Z,95112.44
2023-04-02T18:21:55.499Z,95119.53
2023-04-02T18:25:27.691Z,95126.09
2023-04-02T18:28:55.180Z,95147.06
2023-04-02T18:32:37.170Z,95139.47
2023-04-02T18:35:59.691Z,95139.47
2023-04-02T18:39:22.764Z,95156.31
2023-04-02T18:42:53.253Z,95159.72
2023-04-02T18:46:18.783Z,95167.78
2023-04-02T18:49:36.878Z,95170.72
2023-04-02T18:52:46.375Z,95183.69
2023-04-02T18:56:00.307Z,95192.06
2023-04-02T18:59:31.430Z,95186.19
2023-04-02T19:02:48.420Z,95200.84
2023-04-02T19:06:03.014Z,95206.38
2023-04-02T19:09:20.697Z,95200.59
2023-04-02T19:12:33.771Z,95214.91
2023-04-02T19:16:19.469Z,95221.19
2023-04-02T19:19:31.810Z,95225.09
2023-04-02T19:22:56.081Z,95234.88
2023-04-02T19:26:10.593Z,95242.81
2023-04-02T19:29:36.033Z,95250.63
2023-04-02T19:32:58.394Z,95244.84
2023-04-02T19:36:41.553Z,95259.78
2023-04-02T19:40:33.001Z,95262.34
2023-04-02T19:43:41.627Z,95264.69
2023-04-02T19:46:51.763Z,95283.03
2023-04-02T19:50:00.311Z,95282.56
2023-04-02T19:53:10.105Z,95287.34
2023-04-02T19:56:18.650Z,95291.16
2023-04-02T19:59:27.056Z,95283.56
2023-04-02T20:02:35.670Z,95288.91
2023-04-02T20:05:43.795Z,95289.63
2023-04-02T20:08:53.771Z,95303.22
2023-04-02T20:12:01.933Z,95302.59
2023-04-02T20:15:11.728Z,95303.84
2023-04-02T20:18:21.117Z,95305.78
2023-04-02T20:21:34.635Z,95315.72
2023-04-02T20:24:44.210Z,95321.25
2023-04-02T20:27:53.470Z,95324.59
2023-04-02T20:31:11.193Z,95332.63
2023-04-02T20:34:19.967Z,95337.34
2023-04-02T20:37:29.454Z,95337.34
2023-04-02T20:40:40.876Z,95348.38
2023-04-02T20:43:49.888Z,95345.06
2023-04-02T20:46:58.730Z,95353.25
2023-04-02T20:50:09.011Z,95353.78
2023-04-02T20:53:17.551Z,95368.59
2023-04-02T20:56:27.846Z,95372.19
2023-04-02T20:59:36.339Z,95373.81
2023-04-02T21:02:44.940Z,95377.03
2023-04-02T21:05:53.090Z,95380.22
2023-04-02T21:09:05.798Z,95379.91
2023-04-02T21:12:18.117Z,95389.72
2023-04-02T21:15:26.404Z,95388.22
2023-04-02T21:18:35.109Z,95391.38
2023-04-02T21:21:44.437Z,95390.03
2023-04-02T21:24:52.699Z,95397.63
2023-04-02T21:28:02.289Z,95395.53
2023-04-02T21:31:13.477Z,95393.03
2023-04-02T21:34:21.710Z,95395.28
2023-04-02T21:37:32.778Z,95395.97
2023-04-02T21:40:41.365Z,95409.50
2023-04-02T21:43:51.619Z,95404.38
2023-04-02T21:46:59.818Z,95406.31
2023-04-02T21:50:10.891Z,95418.09
2023-04-02T21:53:19.003Z,95415.31
2023-04-02T21:56:29.942Z,95416.44
2023-04-02T21:59:39.712Z,95420.72
2023-04-02T22:02:47.957Z,95425.28
2023-04-02T22:06:10.655Z,95421.97
2023-04-02T22:09:23.346Z,95425.97
2023-04-02T22:12:31.749Z,95431.78
2023-04-02T22:15:41.547Z,95429.69
2023-04-02T22:18:52.083Z,95423.75
2023-04-02T22:22:03.217Z,95431.09
2023-04-02T22:25:11.756Z,95432.75
2023-04-02T22:28:26.340Z,95433.59
2023-04-02T22:31:36.821Z,95441.28
2023-04-02T22:34:45.848Z,95437.56
2023-04-02T22:37:54.843Z,95435.22
2023-04-02T22:41:09.408Z,95443.25
2023-04-02T22:44:17.843Z,95441.84
2023-04-02T22:47:27.576Z,95449.47
2023-04-02T22:50:36.199Z,95453.59
2023-04-02T22:53:45.553Z,95442.97
2023-04-02T22:56:54.019Z,95445.16
2023-04-02T23:00:02.194Z,95451.50
2023-04-02T23:03:11.706Z,95445.88
2023-04-02T23:06:20.356Z,95454.03
2023-04-02T23:09:28.727Z,95455.69
2023-04-02T23:12:37.052Z,95452.50
2023-04-02T23:15:46.052Z,95455.13
2023-04-02T23:18:56.661Z,95464.28
2023-04-02T23:22:05.245Z,95457.22
2023-04-02T23:25:13.622Z,95460.13
2023-04-02T23:28:21.701Z,95460.38
2023-04-02T23:31:30.212Z,95456.66
2023-04-02T23:34:39.881Z,95460.25
2023-04-02T23:37:50.615Z,95454.59
2023-04-02T23:40:59.008Z,95446.41
2023-04-02T23:44:07.771Z,95452.81
2023-04-02T23:47:16.291Z,95454.03
2023-04-02T23:50:26.317Z,95452.63
2023-04-02T23:53:35.581Z,95451.00
2023-04-02T23:56:44.145Z,95448.50
2023-04-02T23:59:52.367Z,95450.16
